createdAt,value
2022-10-02T00:03:08.503Z,1004.429
2022-10-02T00:23:07.212Z,1004.465
2022-10-02T00:43:07.913Z,1004.552
2022-10-02T01:03:08.762Z,1004.691
2022-10-02T01:23:07.725Z,1004.587
2022-10-02T01:43:07.692Z,1004.736
2022-10-02T02:03:08.429Z,1004.987
2022-10-02T02:23:07.221Z,1004.863
2022-10-02T02:43:07.899Z,1004.671
2022-10-02T03:03:08.753Z,1004.7
2022-10-02T03:23:07.448Z,1004.906
2022-10-02T03:43:07.352Z,1004.983
2022-10-02T04:03:08.412Z,1004.946
2022-10-02T04:23:07.455Z,1004.834
2022-10-02T04:43:07.632Z,1005.094
2022-10-02T05:03:08.515Z,1004.918
2022-10-02T05:23:07.192Z,1005.067
2022-10-02T05:43:08.041Z,1005.099
2022-10-02T06:03:14.521Z,1005.256
2022-10-02T06:23:07.829Z,1005.412
2022-10-02T06:43:07.926Z,1005.661
2022-10-02T07:03:08.719Z,1005.784
2022-10-02T07:23:08.673Z,1005.874
2022-10-02T07:43:07.564Z,1006.037
2022-10-02T08:03:08.447Z,1006.315
2022-10-02T08:23:07.231Z,1006.407
2022-10-02T08:43:08.195Z,1006.482
2022-10-02T09:03:08.998Z,1006.549
2022-10-02T09:23:07.773Z,1006.68
2022-10-02T09:43:07.727Z,1006.697
2022-10-02T10:03:08.467Z,1006.752
2022-10-02T10:23:07.163Z,1006.803
2022-10-02T10:43:11.625Z,1006.969
2022-10-02T11:03:08.648Z,1006.98
2022-10-02T11:23:07.462Z,1007.053
2022-10-02T11:43:07.433Z,1007.227
2022-10-02T12:03:08.572Z,1007.284
2022-10-02T12:23:07.393Z,1007.435
2022-10-02T12:43:07.406Z,1007.488
2022-10-02T13:03:08.285Z,1007.427
2022-10-02T13:23:07.212Z,1007.289
2022-10-02T13:43:07.159Z,1007.442
2022-10-02T14:03:08.952Z,1007.697
2022-10-02T14:23:07.824Z,1007.805
2022-10-02T14:43:07.889Z,1007.964
2022-10-02T15:03:08.738Z,1008.085
2022-10-02T15:23:07.576Z,1008.053
2022-10-02T15:43:07.661Z,1008.337
2022-10-02T16:03:08.592Z,1008.662
2022-10-02T16:23:07.382Z,1008.949
2022-10-02T16:43:07.433Z,1009.298
2022-10-02T17:03:08.739Z,1009.579
2022-10-02T17:23:07.921Z,1009.883
2022-10-02T17:43:07.902Z,1010.359
2022-10-02T18:03:08.862Z,1010.697
2022-10-02T18:23:07.706Z,1010.984
2022-10-02T18:43:07.787Z,1011.263
2022-10-02T19:03:08.762Z,1011.563
2022-10-02T19:23:07.607Z,1011.751
2022-10-02T19:43:07.668Z,1012.125
2022-10-02T20:03:08.659Z,1012.428
2022-10-02T20:23:07.555Z,1012.443
2022-10-02T20:43:07.615Z,1012.716
2022-10-02T21:03:08.677Z,1012.989
2022-10-02T21:23:07.454Z,1013.131
2022-10-02T21:43:07.589Z,1013.428
2022-10-02T22:03:08.719Z,1013.658
2022-10-02T22:23:07.403Z,1013.884
2022-10-02T22:43:08.316Z,1014.004
2022-10-02T23:03:08.076Z,1014.181
2022-10-02T23:23:07.860Z,1014.305
2022-10-02T23:43:07.597Z,1014.396
